sensor_id;sensor_type;location;lat;lon;timestamp;P1;durP1;ratioP1;P2;durP2;ratioP2
20042;SDS011;10182;52.896;6.496;2023-07-20T00:04:02;5.73;;;5.23;;
20042;SDS011;10182;52.896;6.496;2023-07-20T00:09:05;6.37;;;5.87;;
20042;SDS011;10182;52.896;6.496;2023-07-20T00:14:07;6.13;;;5.63;;
20042;SDS011;10182;52.896;6.496;2023-07-20T00:19:09;8.83;;;7.37;;
20042;SDS011;10182;52.896;6.496;2023-07-20T00:24:13;7.63;;;6.87;;
20042;SDS011;10182;52.896;6.496;2023-07-20T00:29:14;8.10;;;7.33;;
20042;SDS011;10182;52.896;6.496;2023-07-20T00:34:16;8.27;;;7.57;;
20042;SDS011;10182;52.896;6.496;2023-07-20T00:39:19;8.30;;;7.60;;
20042;SDS011;10182;52.896;6.496;2023-07-20T00:44:20;8.60;;;7.67;;
20042;SDS011;10182;52.896;6.496;2023-07-20T00:49:22;8.37;;;7.57;;
20042;SDS011;10182;52.896;6.496;2023-07-20T00:54:26;7.97;;;7.30;;
20042;SDS011;10182;52.896;6.496;2023-07-20T00:59:28;7.90;;;7.20;;
20042;SDS011;10182;52.896;6.496;2023-07-20T01:04:30;8.97;;;8.17;;
20042;SDS011;10182;52.896;6.496;2023-07-20T01:09:36;8.67;;;7.87;;
20042;SDS011;10182;52.896;6.496;2023-07-20T01:14:43;10.90;;;8.27;;
20042;SDS011;10182;52.896;6.496;2023-07-20T01:19:46;9.57;;;8.67;;
20042;SDS011;10182;52.896;6.496;2023-07-20T01:25:02;8.60;;;7.77;;
20042;SDS011;10182;52.896;6.496;2023-07-20T01:30:15;8.23;;;7.40;;
20042;SDS011;10182;52.896;6.496;2023-07-20T01:35:28;8.23;;;7.50;;
20042;SDS011;10182;52.896;6.496;2023-07-20T01:40:31;8.80;;;7.97;;
20042;SDS011;10182;52.896;6.496;2023-07-20T01:45:33;8.47;;;7.40;;
20042;SDS011;10182;52.896;6.496;2023-07-20T01:50:36;9.97;;;8.07;;
20042;SDS011;10182;52.896;6.496;2023-07-20T01:55:37;8.93;;;8.07;;
20042;SDS011;10182;52.896;6.496;2023-07-20T02:00:39;9.10;;;8.30;;
20042;SDS011;10182;52.896;6.496;2023-07-20T02:05:43;8.10;;;7.30;;
20042;SDS011;10182;52.896;6.496;2023-07-20T02:10:45;8.33;;;7.53;;
20042;SDS011;10182;52.896;6.496;2023-07-20T02:15:47;9.40;;;8.43;;
20042;SDS011;10182;52.896;6.496;2023-07-20T02:20:50;8.07;;;7.27;;
20042;SDS011;10182;52.896;6.496;2023-07-20T02:25:54;9.17;;;7.03;;
20042;SDS011;10182;52.896;6.496;2023-07-20T02:30:55;7.47;;;6.83;;
20042;SDS011;10182;52.896;6.496;2023-07-20T02:35:58;8.20;;;7.40;;
20042;SDS011;10182;52.896;6.496;2023-07-20T02:41:00;8.00;;;7.20;;
20042;SDS011;10182;52.896;6.496;2023-07-20T02:46:02;7.43;;;6.73;;
20042;SDS011;10182;52.896;6.496;2023-07-20T02:51:05;6.97;;;6.37;;
20042;SDS011;10182;52.896;6.496;2023-07-20T02:56:09;7.17;;;6.57;;
20042;SDS011;10182;52.896;6.496;2023-07-20T03:01:11;7.13;;;6.53;;
20042;SDS011;10182;52.896;6.496;2023-07-20T03:06:14;7.77;;;7.03;;
20042;SDS011;10182;52.896;6.496;2023-07-20T03:11:17;7.60;;;6.57;;
20042;SDS011;10182;52.896;6.496;2023-07-20T03:16:19;9.73;;;7.33;;
20042;SDS011;10182;52.896;6.496;2023-07-20T03:21:22;8.13;;;7.37;;
20042;SDS011;10182;52.896;6.496;2023-07-20T03:26:24;7.27;;;6.67;;
20042;SDS011;10182;52.896;6.496;2023-07-20T03:31:26;7.77;;;6.97;;
20042;SDS011;10182;52.896;6.496;2023-07-20T03:36:29;8.60;;;7.23;;
20042;SDS011;10182;52.896;6.496;2023-07-20T03:41:31;7.57;;;6.87;;
20042;SDS011;10182;52.896;6.496;2023-07-20T03:46:33;8.27;;;7.47;;
20042;SDS011;10182;52.896;6.496;2023-07-20T03:51:36;7.40;;;6.63;;
20042;SDS011;10182;52.896;6.496;2023-07-20T03:56:38;7.60;;;6.90;;
20042;SDS011;10182;52.896;6.496;2023-07-20T04:01:39;7.57;;;6.77;;
20042;SDS011;10182;52.896;6.496;2023-07-20T04:06:42;7.60;;;6.90;;
20042;SDS011;10182;52.896;6.496;2023-07-20T04:11:45;8.10;;;7.30;;
20042;SDS011;10182;52.896;6.496;2023-07-20T04:16:48;7.43;;;6.60;;
20042;SDS011;10182;52.896;6.496;2023-07-20T04:21:52;7.30;;;6.60;;
20042;SDS011;10182;52.896;6.496;2023-07-20T04:26:54;8.47;;;6.47;;
20042;SDS011;10182;52.896;6.496;2023-07-20T04:31:58;8.67;;;7.10;;
20042;SDS011;10182;52.896;6.496;2023-07-20T04:37:02;8.93;;;6.70;;
20042;SDS011;10182;52.896;6.496;2023-07-20T04:42:03;8.70;;;7.03;;
20042;SDS011;10182;52.896;6.496;2023-07-20T04:47:06;7.53;;;6.83;;
20042;SDS011;10182;52.896;6.496;2023-07-20T04:52:10;6.87;;;5.70;;
20042;SDS011;10182;52.896;6.496;2023-07-20T04:57:11;6.27;;;5.67;;
20042;SDS011;10182;52.896;6.496;2023-07-20T05:02:13;6.87;;;5.67;;
20042;SDS011;10182;52.896;6.496;2023-07-20T05:07:16;5.77;;;5.27;;
20042;SDS011;10182;52.896;6.496;2023-07-20T05:12:18;5.83;;;5.27;;
20042;SDS011;10182;52.896;6.496;2023-07-20T05:17:20;5.47;;;4.97;;
20042;SDS011;10182;52.896;6.496;2023-07-20T05:22:23;5.53;;;4.80;;
20042;SDS011;10182;52.896;6.496;2023-07-20T05:27:24;5.90;;;4.53;;
20042;SDS011;10182;52.896;6.496;2023-07-20T05:32:26;6.37;;;4.87;;
20042;SDS011;10182;52.896;6.496;2023-07-20T05:37:29;7.80;;;4.70;;
20042;SDS011;10182;52.896;6.496;2023-07-20T05:42:31;4.40;;;4.00;;
20042;SDS011;10182;52.896;6.496;2023-07-20T05:47:32;4.47;;;3.80;;
20042;SDS011;10182;52.896;6.496;2023-07-20T05:52:35;4.33;;;3.20;;
20042;SDS011;10182;52.896;6.496;2023-07-20T05:57:39;4.83;;;3.50;;
20042;SDS011;10182;52.896;6.496;2023-07-20T06:02:43;3.53;;;2.47;;
20042;SDS011;10182;52.896;6.496;2023-07-20T06:07:46;2.37;;;2.17;;
20042;SDS011;10182;52.896;6.496;2023-07-20T06:12:47;3.83;;;2.23;;
20042;SDS011;10182;52.896;6.496;2023-07-20T06:17:49;3.67;;;1.97;;
20042;SDS011;10182;52.896;6.496;2023-07-20T06:22:52;1.90;;;1.80;;
20042;SDS011;10182;52.896;6.496;2023-07-20T06:27:54;9.47;;;2.00;;
20042;SDS011;10182;52.896;6.496;2023-07-20T06:32:56;4.00;;;1.90;;
20042;SDS011;10182;52.896;6.496;2023-07-20T06:37:59;2.53;;;1.77;;
20042;SDS011;10182;52.896;6.496;2023-07-20T06:43:01;1.70;;;1.50;;
20042;SDS011;10182;52.896;6.496;2023-07-20T06:48:03;3.10;;;1.33;;
20042;SDS011;10182;52.896;6.496;2023-07-20T06:53:06;3.80;;;1.40;;
20042;SDS011;10182;52.896;6.496;2023-07-20T06:58:07;2.03;;;1.53;;
20042;SDS011;10182;52.896;6.496;2023-07-20T07:03:09;2.83;;;1.37;;
20042;SDS011;10182;52.896;6.496;2023-07-20T07:08:12;6.53;;;1.70;;
20042;SDS011;10182;52.896;6.496;2023-07-20T07:13:14;2.60;;;1.20;;
20042;SDS011;10182;52.896;6.496;2023-07-20T07:18:16;2.53;;;1.27;;
20042;SDS011;10182;52.896;6.496;2023-07-20T07:23:21;2.20;;;1.13;;
20042;SDS011;10182;52.896;6.496;2023-07-20T07:28:23;1.63;;;0.97;;
20042;SDS011;10182;52.896;6.496;2023-07-20T07:33:25;2.13;;;1.20;;
20042;SDS011;10182;52.896;6.496;2023-07-20T07:38:28;3.10;;;0.97;;
20042;SDS011;10182;52.896;6.496;2023-07-20T07:43:29;3.90;;;1.30;;
20042;SDS011;10182;52.896;6.496;2023-07-20T07:48:31;2.87;;;1.13;;
20042;SDS011;10182;52.896;6.496;2023-07-20T07:53:34;2.47;;;0.80;;
20042;SDS011;10182;52.896;6.496;2023-07-20T07:58:37;3.37;;;1.07;;
20042;SDS011;10182;52.896;6.496;2023-07-20T08:03:38;2.63;;;0.90;;
20042;SDS011;10182;52.896;6.496;2023-07-20T08:08:41;3.80;;;1.23;;
20042;SDS011;10182;52.896;6.496;2023-07-20T08:13:43;1.83;;;1.10;;
20042;SDS011;10182;52.896;6.496;2023-07-20T08:18:45;2.97;;;1.30;;
20042;SDS011;10182;52.896;6.496;2023-07-20T08:23:48;3.33;;;1.20;;
20042;SDS011;10182;52.896;6.496;2023-07-20T08:28:50;3.80;;;1.10;;
20042;SDS011;10182;52.896;6.496;2023-07-20T08:33:51;2.83;;;1.03;;
20042;SDS011;10182;52.896;6.496;2023-07-20T08:38:54;4.37;;;0.80;;
20042;SDS011;10182;52.896;6.496;2023-07-20T08:43:56;2.57;;;0.90;;
20042;SDS011;10182;52.896;6.496;2023-07-20T08:48:59;1.57;;;0.80;;
20042;SDS011;10182;52.896;6.496;2023-07-20T08:54:04;4.40;;;1.10;;
20042;SDS011;10182;52.896;6.496;2023-07-20T08:59:06;2.57;;;0.80;;
20042;SDS011;10182;52.896;6.496;2023-07-20T09:04:09;1.20;;;0.93;;
20042;SDS011;10182;52.896;6.496;2023-07-20T09:09:13;4.17;;;0.83;;
20042;SDS011;10182;52.896;6.496;2023-07-20T09:14:14;1.40;;;0.77;;
20042;SDS011;10182;52.896;6.496;2023-07-20T09:19:16;1.33;;;0.73;;
20042;SDS011;10182;52.896;6.496;2023-07-20T09:24:20;2.67;;;0.90;;
20042;SDS011;10182;52.896;6.496;2023-07-20T09:29:22;1.60;;;1.00;;
20042;SDS011;10182;52.896;6.496;2023-07-20T09:34:23;1.17;;;0.70;;
20042;SDS011;10182;52.896;6.496;2023-07-20T09:39:26;3.03;;;1.03;;
20042;SDS011;10182;52.896;6.496;2023-07-20T09:44:28;1.43;;;1.00;;
20042;SDS011;10182;52.896;6.496;2023-07-20T09:49:30;3.13;;;1.20;;
20042;SDS011;10182;52.896;6.496;2023-07-20T09:54:33;1.67;;;0.80;;
20042;SDS011;10182;52.896;6.496;2023-07-20T09:59:35;2.17;;;1.27;;
20042;SDS011;10182;52.896;6.496;2023-07-20T10:04:37;1.37;;;0.93;;
20042;SDS011;10182;52.896;6.496;2023-07-20T10:09:40;1.60;;;1.13;;
20042;SDS011;10182;52.896;6.496;2023-07-20T10:14:44;2.27;;;1.13;;
20042;SDS011;10182;52.896;6.496;2023-07-20T10:19:54;1.63;;;1.33;;
20042;SDS011;10182;52.896;6.496;2023-07-20T10:24:59;2.60;;;1.40;;
20042;SDS011;10182;52.896;6.496;2023-07-20T10:30:01;2.00;;;1.10;;
20042;SDS011;10182;52.896;6.496;2023-07-20T10:35:11;4.17;;;1.57;;
20042;SDS011;10182;52.896;6.496;2023-07-20T10:40:25;2.17;;;1.43;;
20042;SDS011;10182;52.896;6.496;2023-07-20T10:45:35;4.17;;;1.20;;
20042;SDS011;10182;52.896;6.496;2023-07-20T10:50:37;1.43;;;0.90;;
20042;SDS011;10182;52.896;6.496;2023-07-20T10:55:40;1.70;;;1.10;;
20042;SDS011;10182;52.896;6.496;2023-07-20T11:01:00;1.97;;;1.27;;
20042;SDS011;10182;52.896;6.496;2023-07-20T11:11:35;1.77;;;1.10;;
20042;SDS011;10182;52.896;6.496;2023-07-20T11:16:39;1.97;;;1.43;;
20042;SDS011;10182;52.896;6.496;2023-07-20T11:21:42;2.30;;;1.57;;
20042;SDS011;10182;52.896;6.496;2023-07-20T11:26:47;1.90;;;1.20;;
20042;SDS011;10182;52.896;6.496;2023-07-20T11:31:50;3.87;;;1.27;;
20042;SDS011;10182;52.896;6.496;2023-07-20T11:36:52;1.63;;;1.07;;
20042;SDS011;10182;52.896;6.496;2023-07-20T11:41:56;1.17;;;0.90;;
20042;SDS011;10182;52.896;6.496;2023-07-20T11:47:01;3.20;;;1.50;;
20042;SDS011;10182;52.896;6.496;2023-07-20T11:52:04;1.50;;;1.13;;
20042;SDS011;10182;52.896;6.496;2023-07-20T11:57:08;2.97;;;1.77;;
20042;SDS011;10182;52.896;6.496;2023-07-20T12:02:17;2.80;;;1.50;;
20042;SDS011;10182;52.896;6.496;2023-07-20T12:07:19;3.73;;;1.70;;
20042;SDS011;10182;52.896;6.496;2023-07-20T12:12:22;2.83;;;1.70;;
20042;SDS011;10182;52.896;6.496;2023-07-20T12:17:24;2.10;;;1.40;;
20042;SDS011;10182;52.896;6.496;2023-07-20T12:22:25;4.67;;;1.97;;
20042;SDS011;10182;52.896;6.496;2023-07-20T12:27:28;2.23;;;1.90;;
20042;SDS011;10182;52.896;6.496;2023-07-20T12:32:30;4.40;;;1.77;;
20042;SDS011;10182;52.896;6.496;2023-07-20T12:37:32;2.30;;;1.70;;
20042;SDS011;10182;52.896;6.496;2023-07-20T12:42:35;5.60;;;1.60;;
20042;SDS011;10182;52.896;6.496;2023-07-20T12:47:36;3.23;;;0.80;;
20042;SDS011;10182;52.896;6.496;2023-07-20T12:52:39;2.20;;;1.47;;
20042;SDS011;10182;52.896;6.496;2023-07-20T12:57:43;3.37;;;1.87;;
20042;SDS011;10182;52.896;6.496;2023-07-20T13:02:44;2.27;;;1.53;;
20042;SDS011;10182;52.896;6.496;2023-07-20T13:07:46;3.17;;;1.60;;
20042;SDS011;10182;52.896;6.496;2023-07-20T13:12:49;1.93;;;1.30;;
20042;SDS011;10182;52.896;6.496;2023-07-20T13:17:51;5.37;;;1.77;;
20042;SDS011;10182;52.896;6.496;2023-07-20T13:22:53;4.03;;;2.10;;
20042;SDS011;10182;52.896;6.496;2023-07-20T13:27:56;3.90;;;1.80;;
20042;SDS011;10182;52.896;6.496;2023-07-20T13:32:58;5.30;;;2.13;;
20042;SDS011;10182;52.896;6.496;2023-07-20T13:37:59;1.87;;;1.43;;
20042;SDS011;10182;52.896;6.496;2023-07-20T13:43:02;2.33;;;1.63;;
20042;SDS011;10182;52.896;6.496;2023-07-20T13:48:04;2.40;;;1.70;;
20042;SDS011;10182;52.896;6.496;2023-07-20T13:53:06;2.37;;;1.33;;
20042;SDS011;10182;52.896;6.496;2023-07-20T13:58:09;2.20;;;1.30;;
20042;SDS011;10182;52.896;6.496;2023-07-20T14:03:11;3.63;;;1.27;;
20042;SDS011;10182;52.896;6.496;2023-07-20T14:08:13;3.47;;;1.43;;
20042;SDS011;10182;52.896;6.496;2023-07-20T14:13:16;2.10;;;0.80;;
20042;SDS011;10182;52.896;6.496;2023-07-20T14:18:20;2.13;;;1.27;;
20042;SDS011;10182;52.896;6.496;2023-07-20T14:23:22;1.73;;;1.20;;
20042;SDS011;10182;52.896;6.496;2023-07-20T14:28:25;2.57;;;1.93;;
20042;SDS011;10182;52.896;6.496;2023-07-20T14:33:27;2.70;;;1.63;;
20042;SDS011;10182;52.896;6.496;2023-07-20T14:38:30;6.43;;;1.47;;
20042;SDS011;10182;52.896;6.496;2023-07-20T14:43:34;1.67;;;1.30;;
20042;SDS011;10182;52.896;6.496;2023-07-20T14:48:36;4.17;;;1.47;;
20042;SDS011;10182;52.896;6.496;2023-07-20T14:53:37;2.87;;;1.43;;
20042;SDS011;10182;52.896;6.496;2023-07-20T14:58:40;4.73;;;1.43;;
20042;SDS011;10182;52.896;6.496;2023-07-20T15:03:42;2.40;;;0.80;;
20042;SDS011;10182;52.896;6.496;2023-07-20T15:08:44;1.63;;;1.07;;
20042;SDS011;10182;52.896;6.496;2023-07-20T15:13:47;3.50;;;1.40;;
20042;SDS011;10182;52.896;6.496;2023-07-20T15:18:49;4.70;;;1.40;;
20042;SDS011;10182;52.896;6.496;2023-07-20T15:23:50;1.43;;;1.10;;
20042;SDS011;10182;52.896;6.496;2023-07-20T15:28:53;1.10;;;1.00;;
20042;SDS011;10182;52.896;6.496;2023-07-20T15:33:55;3.63;;;1.10;;
20042;SDS011;10182;52.896;6.496;2023-07-20T15:38:57;1.47;;;0.97;;
20042;SDS011;10182;52.896;6.496;2023-07-20T15:44:00;1.67;;;1.13;;
20042;SDS011;10182;52.896;6.496;2023-07-20T15:49:02;12.43;;;1.60;;
20042;SDS011;10182;52.896;6.496;2023-07-20T15:54:04;2.67;;;1.10;;
20042;SDS011;10182;52.896;6.496;2023-07-20T15:59:09;3.53;;;0.90;;
20042;SDS011;10182;52.896;6.496;2023-07-20T16:04:12;4.00;;;1.47;;
20042;SDS011;10182;52.896;6.496;2023-07-20T16:09:15;2.70;;;1.50;;
20042;SDS011;10182;52.896;6.496;2023-07-20T16:14:18;1.20;;;0.90;;
20042;SDS011;10182;52.896;6.496;2023-07-20T16:19:20;1.80;;;1.00;;
20042;SDS011;10182;52.896;6.496;2023-07-20T16:24:21;1.90;;;0.93;;
20042;SDS011;10182;52.896;6.496;2023-07-20T16:29:25;2.07;;;1.10;;
20042;SDS011;10182;52.896;6.496;2023-07-20T16:34:26;1.53;;;1.10;;
20042;SDS011;10182;52.896;6.496;2023-07-20T16:39:28;3.50;;;1.23;;
20042;SDS011;10182;52.896;6.496;2023-07-20T16:44:32;2.33;;;1.20;;
20042;SDS011;10182;52.896;6.496;2023-07-20T16:49:33;1.90;;;1.30;;
20042;SDS011;10182;52.896;6.496;2023-07-20T16:54:35;2.20;;;1.27;;
20042;SDS011;10182;52.896;6.496;2023-07-20T16:59:38;1.50;;;1.10;;
20042;SDS011;10182;52.896;6.496;2023-07-20T17:04:40;3.07;;;1.73;;
20042;SDS011;10182;52.896;6.496;2023-07-20T17:09:42;1.80;;;1.10;;
20042;SDS011;10182;52.896;6.496;2023-07-20T17:14:45;2.13;;;1.17;;
20042;SDS011;10182;52.896;6.496;2023-07-20T17:19:47;1.57;;;1.00;;
20042;SDS011;10182;52.896;6.496;2023-07-20T17:24:48;1.90;;;0.93;;
20042;SDS011;10182;52.896;6.496;2023-07-20T17:29:52;1.20;;;0.97;;
20042;SDS011;10182;52.896;6.496;2023-07-20T17:34:54;5.37;;;1.90;;
20042;SDS011;10182;52.896;6.496;2023-07-20T17:39:56;2.20;;;1.47;;
20042;SDS011;10182;52.896;6.496;2023-07-20T17:44:59;1.37;;;1.03;;
20042;SDS011;10182;52.896;6.496;2023-07-20T17:50:01;1.17;;;1.07;;
20042;SDS011;10182;52.896;6.496;2023-07-20T17:55:03;1.53;;;1.13;;
20042;SDS011;10182;52.896;6.496;2023-07-20T18:00:07;2.30;;;1.03;;
20042;SDS011;10182;52.896;6.496;2023-07-20T18:05:11;3.53;;;1.10;;
20042;SDS011;10182;52.896;6.496;2023-07-20T18:10:14;2.63;;;1.60;;
20042;SDS011;10182;52.896;6.496;2023-07-20T18:15:17;2.80;;;1.10;;
20042;SDS011;10182;52.896;6.496;2023-07-20T18:20:19;2.60;;;1.13;;
20042;SDS011;10182;52.896;6.496;2023-07-20T18:25:21;3.33;;;1.10;;
20042;SDS011;10182;52.896;6.496;2023-07-20T18:30:24;1.87;;;1.43;;
20042;SDS011;10182;52.896;6.496;2023-07-20T18:35:32;2.17;;;1.80;;
20042;SDS011;10182;52.896;6.496;2023-07-20T18:40:34;2.97;;;1.43;;
20042;SDS011;10182;52.896;6.496;2023-07-20T18:45:37;2.17;;;1.50;;
20042;SDS011;10182;52.896;6.496;2023-07-20T18:50:40;1.57;;;1.43;;
20042;SDS011;10182;52.896;6.496;2023-07-20T18:55:42;2.67;;;1.50;;
20042;SDS011;10182;52.896;6.496;2023-07-20T19:00:45;1.93;;;1.40;;
20042;SDS011;10182;52.896;6.496;2023-07-20T19:05:49;1.70;;;1.40;;
20042;SDS011;10182;52.896;6.496;2023-07-20T19:10:51;5.50;;;1.87;;
20042;SDS011;10182;52.896;6.496;2023-07-20T19:16:00;3.13;;;1.57;;
20042;SDS011;10182;52.896;6.496;2023-07-20T19:21:03;2.33;;;1.80;;
20042;SDS011;10182;52.896;6.496;2023-07-20T19:26:05;4.53;;;1.60;;
20042;SDS011;10182;52.896;6.496;2023-07-20T19:31:08;4.80;;;1.70;;
20042;SDS011;10182;52.896;6.496;2023-07-20T19:36:10;4.20;;;1.93;;
20042;SDS011;10182;52.896;6.496;2023-07-20T19:41:12;3.43;;;1.70;;
20042;SDS011;10182;52.896;6.496;2023-07-20T19:46:15;4.13;;;1.70;;
20042;SDS011;10182;52.896;6.496;2023-07-20T19:51:17;3.20;;;2.10;;
20042;SDS011;10182;52.896;6.496;2023-07-20T19:56:19;3.53;;;2.20;;
20042;SDS011;10182;52.896;6.496;2023-07-20T20:01:22;2.60;;;1.90;;
20042;SDS011;10182;52.896;6.496;2023-07-20T20:06:24;1.73;;;1.43;;
20042;SDS011;10182;52.896;6.496;2023-07-20T20:11:25;4.47;;;2.13;;
20042;SDS011;10182;52.896;6.496;2023-07-20T20:16:28;3.30;;;1.90;;
20042;SDS011;10182;52.896;6.496;2023-07-20T20:21:31;4.13;;;1.87;;
20042;SDS011;10182;52.896;6.496;2023-07-20T20:26:35;3.00;;;1.60;;
20042;SDS011;10182;52.896;6.496;2023-07-20T20:31:39;1.97;;;1.83;;
20042;SDS011;10182;52.896;6.496;2023-07-20T20:36:40;3.20;;;2.13;;
20042;SDS011;10182;52.896;6.496;2023-07-20T20:41:43;3.57;;;2.17;;
20042;SDS011;10182;52.896;6.496;2023-07-20T20:46:48;2.67;;;2.00;;
20042;SDS011;10182;52.896;6.496;2023-07-20T20:51:50;3.67;;;2.20;;
20042;SDS011;10182;52.896;6.496;2023-07-20T20:56:51;3.17;;;2.07;;
20042;SDS011;10182;52.896;6.496;2023-07-20T21:01:55;3.67;;;2.50;;
20042;SDS011;10182;52.896;6.496;2023-07-20T21:06:58;4.27;;;2.10;;
20042;SDS011;10182;52.896;6.496;2023-07-20T21:11:59;5.37;;;2.60;;
20042;SDS011;10182;52.896;6.496;2023-07-20T21:17:03;3.53;;;2.70;;
20042;SDS011;10182;52.896;6.496;2023-07-20T21:22:05;6.33;;;2.80;;
20042;SDS011;10182;52.896;6.496;2023-07-20T21:27:07;4.57;;;2.83;;
20042;SDS011;10182;52.896;6.496;2023-07-20T21:32:10;4.87;;;2.70;;
20042;SDS011;10182;52.896;6.496;2023-07-20T21:37:12;4.87;;;2.63;;
20042;SDS011;10182;52.896;6.496;2023-07-20T21:42:13;4.63;;;2.20;;
20042;SDS011;10182;52.896;6.496;2023-07-20T21:47:17;4.80;;;2.80;;
20042;SDS011;10182;52.896;6.496;2023-07-20T21:52:19;3.37;;;2.60;;
20042;SDS011;10182;52.896;6.496;2023-07-20T21:57:21;4.47;;;2.30;;
20042;SDS011;10182;52.896;6.496;2023-07-20T22:02:24;4.83;;;3.40;;
20042;SDS011;10182;52.896;6.496;2023-07-20T22:07:26;3.27;;;2.80;;
20042;SDS011;10182;52.896;6.496;2023-07-20T22:12:27;7.47;;;3.43;;
20042;SDS011;10182;52.896;6.496;2023-07-20T22:17:31;4.60;;;3.50;;
20042;SDS011;10182;52.896;6.496;2023-07-20T22:22:32;4.93;;;3.33;;
20042;SDS011;10182;52.896;6.496;2023-07-20T22:27:35;4.00;;;3.30;;
20042;SDS011;10182;52.896;6.496;2023-07-20T22:32:38;3.87;;;2.90;;
20042;SDS011;10182;52.896;6.496;2023-07-20T22:37:40;5.90;;;3.00;;
20042;SDS011;10182;52.896;6.496;2023-07-20T22:42:42;4.53;;;4.00;;
20042;SDS011;10182;52.896;6.496;2023-07-20T22:47:46;7.57;;;3.73;;
20042;SDS011;10182;52.896;6.496;2023-07-20T22:52:48;7.77;;;3.40;;
20042;SDS011;10182;52.896;6.496;2023-07-20T22:57:50;6.23;;;3.00;;
20042;SDS011;10182;52.896;6.496;2023-07-20T23:02:55;6.50;;;4.13;;
20042;SDS011;10182;52.896;6.496;2023-07-20T23:07:57;6.13;;;3.50;;
20042;SDS011;10182;52.896;6.496;2023-07-20T23:12:58;4.37;;;3.57;;
20042;SDS011;10182;52.896;6.496;2023-07-20T23:18:02;7.13;;;3.67;;
20042;SDS011;10182;52.896;6.496;2023-07-20T23:23:04;3.87;;;3.37;;
20042;SDS011;10182;52.896;6.496;2023-07-20T23:28:07;5.37;;;4.20;;
20042;SDS011;10182;52.896;6.496;2023-07-20T23:33:10;5.70;;;3.80;;
20042;SDS011;10182;52.896;6.496;2023-07-20T23:38:12;5.47;;;3.63;;
20042;SDS011;10182;52.896;6.496;2023-07-20T23:43:14;4.20;;;3.47;;
20042;SDS011;10182;52.896;6.496;2023-07-20T23:48:17;7.07;;;4.17;;
20042;SDS011;10182;52.896;6.496;2023-07-20T23:53:19;4.97;;;4.03;;
20042;SDS011;10182;52.896;6.496;2023-07-20T23:58:21;4.40;;;4.00;;
